Time;durP1;ratioP1;P1;durP2;ratioP2;P2;SDS_P1;SDS_P2;PMS_P1;PMS_P2;Temp;Humidity;BMP_temperature;BMP_pressure;BME280_temperature;BME280_humidity;BME280_pressure;Samples;Min_cycle;Max_cycle;Signal;HPM_P1;HPM_P2
2022/09/14 00:00:45;;;;;;;;;;;;;;;20.73;48.46;99051.28;4481499;32;34532;-62
2022/09/14 00:03:30;;;;;;;;;;;;;;;20.63;48.78;99040.75;4479986;32;34676;-62
2022/09/14 00:06:02;;;;;;;;;;;;;;;20.61;48.88;99042.81;4482593;32;35327;-62
2022/09/14 00:08:29;;;;;;;;;;;;;;;20.60;48.84;99039.25;4474748;32;34194;-63
2022/09/14 00:10:57;;;;;;;;;;;;;;;20.57;49.07;99050.53;4477822;32;34257;-62
2022/09/14 00:13:24;;;;;;;;;;;;;;;20.56;49.67;99050.75;4476024;32;34882;-62
2022/09/14 00:15:51;;;;;;;;;;;;;;;20.57;48.96;99046.97;4473491;32;32904;-62
2022/09/14 00:18:19;;;;;;;;;;;;;;;20.54;48.78;99048.19;4478986;32;35334;-61
2022/09/14 00:20:46;;;;;;;;;;;;;;;20.47;48.79;99050.84;4480513;32;33035;-61
2022/09/14 00:23:13;;;;;;;;;;;;;;;20.40;49.04;99046.38;4479511;32;33275;-62
2022/09/14 00:25:40;;;;;;;;;;;;;;;20.37;49.13;99038.63;4482237;32;35310;-62
2022/09/14 00:28:08;;;;;;;;;;;;;;;20.37;49.27;99035.91;4483437;32;34359;-62
2022/09/14 00:30:40;;;;;;;;;;;;;;;20.35;49.45;99036.09;4478646;32;33127;-61
2022/09/14 00:33:07;;;;;;;;;;;;;;;20.41;48.89;99034.47;4466089;32;33102;-61
2022/09/14 00:35:34;;;;;;;;;;;;;;;20.35;49.13;99043.41;4480662;32;33921;-61
2022/09/14 00:38:02;;;;;;;;;;;;;;;20.28;48.98;99037.06;4480692;32;33888;-61
2022/09/14 00:40:29;;;;;;;;;;;;;;;20.31;48.83;99036.69;4481531;32;35948;-61
2022/09/14 00:42:57;;;;;;;;;;;;;;;20.24;48.91;99039.34;4478210;32;34684;-61
2022/09/14 00:45:24;;;;;;;;;;;;;;;20.16;49.57;99042.16;4481446;32;35157;-61
2022/09/14 00:47:52;;;;;;;;;;;;;;;20.21;49.57;99037.00;4479892;32;35160;-61
2022/09/14 00:50:19;;;;;;;;;;;;;;;20.05;49.88;99035.38;4469054;32;33966;-61
2022/09/14 00:52:47;;;;;;;;;;;;;;;20.19;49.18;99031.78;4467499;32;34339;-61
2022/09/14 00:55:17;;;;;;;;;;;;;;;20.25;49.00;99020.09;4479513;32;34017;-62
2022/09/14 00:57:48;;;;;;;;;;;;;;;20.25;49.08;99019.25;4481504;32;35848;-61
2022/09/14 01:00:17;;;;;;;;;;;;;;;20.19;49.52;99007.31;4482164;32;35992;-62
2022/09/14 01:02:44;;;;;;;;;;;;;;;20.13;49.40;99018.97;4478397;32;34563;-62
2022/09/14 01:05:11;;;;;;;;;;;;;;;19.93;49.84;99018.72;4477464;32;33909;-62
2022/09/14 01:07:55;;;;;;;;;;;;;;;20.03;49.07;99015.69;4481587;32;35459;-62
2022/09/14 01:10:42;;;;;;;;;;;;;;;19.99;49.55;99009.81;4470764;32;34400;-62
2022/09/14 01:13:09;;;;;;;;;;;;;;;19.86;49.50;99017.81;4482810;32;33561;-62
2022/09/14 01:15:36;;;;;;;;;;;;;;;19.92;49.26;99010.78;4472133;32;35163;-62
2022/09/14 01:18:08;;;;;;;;;;;;;;;19.93;49.69;99013.31;4483142;32;34350;-62
2022/09/14 01:20:36;;;;;;;;;;;;;;;19.97;49.60;99005.63;4480129;32;35582;-62
2022/09/14 01:23:09;;;;;;;;;;;;;;;19.85;49.99;99004.47;4484801;32;33099;-62
2022/09/14 01:25:40;;;;;;;;;;;;;;;20.00;49.19;99003.37;4483465;32;35163;-62
2022/09/14 01:28:33;;;;;;;;;;;;;;;19.95;49.34;99002.25;4481886;32;33409;-62
2022/09/14 01:31:02;;;;;;;;;;;;;;;19.90;49.63;99007.41;4476061;32;34999;-62
2022/09/14 01:33:31;;;;;;;;;;;;;;;19.89;49.48;99005.75;4480027;32;33263;-63
2022/09/14 01:35:58;;;;;;;;;;;;;;;19.85;49.38;99005.28;4471485;32;34593;-61
2022/09/14 01:38:52;;;;;;;;;;;;;;;19.79;49.36;98992.47;4467993;32;34143;-62
2022/09/14 01:41:21;;;;;;;;;;;;;;;19.79;49.21;98997.91;4480556;32;33095;-61
2022/09/14 01:43:50;;;;;;;;;;;;;;;19.75;49.32;98994.75;4484198;32;33471;-62
2022/09/14 01:46:18;;;;;;;;;;;;;;;19.77;49.25;98991.81;4468469;32;33998;-62
2022/09/14 01:48:59;;;;;;;;;;;;;;;19.78;49.10;98988.94;4468124;32;35088;-62
2022/09/14 01:51:28;;;;;;;;;;;;;;;19.77;49.37;98986.41;4476656;32;34100;-61
2022/09/14 01:54:04;;;;;;;;;;;;;;;19.72;49.34;98976.12;4475136;32;32402;-61
2022/09/14 01:56:34;;;;;;;;;;;;;;;19.67;49.36;98969.56;4471031;32;35289;-62
2022/09/14 01:59:04;;;;;;;;;;;;;;;19.62;49.68;98966.59;4478382;32;33706;-62
2022/09/14 02:01:36;;;;;;;;;;;;;;;19.61;50.27;98954.88;4482676;32;33134;-63
2022/09/14 02:04:05;;;;;;;;;;;;;;;19.65;49.76;98958.09;4470655;32;35408;-62
2022/09/14 02:06:39;;;;;;;;;;;;;;;19.68;49.90;98955.84;4478003;32;35264;-62
2022/09/14 02:09:09;;;;;;;;;;;;;;;19.69;49.79;98956.66;4467742;32;32630;-63
2022/09/14 02:11:36;;;;;;;;;;;;;;;19.60;50.24;98945.03;4468122;32;34333;-62
2022/09/14 02:14:04;;;;;;;;;;;;;;;19.68;50.12;98949.56;4469172;32;33640;-62
2022/09/14 02:16:31;;;;;;;;;;;;;;;19.63;49.81;98941.94;4474443;32;33562;-61
2022/09/14 02:19:00;;;;;;;;;;;;;;;19.67;49.75;98937.00;4481095;32;34272;-62
2022/09/14 02:21:28;;;;;;;;;;;;;;;19.62;50.53;98932.13;4482734;31;35448;-62
2022/09/14 02:23:59;;;;;;;;;;;;;;;19.63;50.59;98935.69;4480628;32;34661;-61
2022/09/14 02:26:26;;;;;;;;;;;;;;;19.71;50.47;98941.87;4480163;31;33270;-61
2022/09/14 02:28:54;;;;;;;;;;;;;;;19.72;50.24;98929.97;4478970;32;34096;-62
2022/09/14 02:31:41;;;;;;;;;;;;;;;19.63;50.14;98925.66;4480783;31;35072;-61
2022/09/14 02:34:29;;;;;;;;;;;;;;;19.73;49.78;98926.22;4482779;32;33418;-61
2022/09/14 02:37:07;;;;;;;;;;;;;;;19.75;49.85;98926.87;4480147;32;34809;-61
2022/09/14 02:39:35;;;;;;;;;;;;;;;19.77;49.76;98932.09;4481694;32;33034;-61
2022/09/14 02:42:07;;;;;;;;;;;;;;;19.64;50.30;98931.97;4481079;31;35481;-62
2022/09/14 02:44:35;;;;;;;;;;;;;;;19.73;49.86;98934.34;4474359;32;33367;-61
2022/09/14 02:47:02;;;;;;;;;;;;;;;19.62;49.58;98929.41;4476086;32;34190;-62
2022/09/14 02:49:43;;;;;;;;;;;;;;;19.44;50.09;98920.84;4478890;31;34149;-61
2022/09/14 02:52:13;;;;;;;;;;;;;;;19.52;50.30;98920.75;4480675;32;34371;-61
2022/09/14 02:54:49;;;;;;;;;;;;;;;19.61;50.59;98916.88;4471920;32;34254;-63
2022/09/14 02:57:17;;;;;;;;;;;;;;;19.57;50.96;98921.00;4469564;32;33923;-61
2022/09/14 02:59:44;;;;;;;;;;;;;;;19.71;49.89;98919.28;4481241;31;35477;-61
2022/09/14 03:02:11;;;;;;;;;;;;;;;19.71;50.26;98916.56;4481740;32;34020;-61
2022/09/14 03:04:39;;;;;;;;;;;;;;;19.72;50.55;98901.97;4478979;31;34075;-61
2022/09/14 03:07:07;;;;;;;;;;;;;;;19.84;50.13;98899.56;4478384;32;33989;-61
2022/09/14 03:09:34;;;;;;;;;;;;;;;19.79;50.70;98900.16;4482045;31;35355;-60
2022/09/14 03:12:02;;;;;;;;;;;;;;;19.61;50.83;98900.56;4481491;32;34524;-61
2022/09/14 03:14:29;;;;;;;;;;;;;;;19.84;50.30;98908.59;4480342;32;32613;-61
2022/09/14 03:16:57;;;;;;;;;;;;;;;19.86;51.04;98911.09;4481875;31;33344;-61
2022/09/14 03:19:24;;;;;;;;;;;;;;;19.81;51.27;98906.25;4482935;32;34303;-61
2022/09/14 03:21:51;;;;;;;;;;;;;;;19.94;50.53;98902.81;4481998;31;34368;-61
2022/09/14 03:24:19;;;;;;;;;;;;;;;19.98;50.47;98909.53;4479663;32;33480;-61
2022/09/14 03:26:46;;;;;;;;;;;;;;;19.99;50.76;98903.87;4472168;31;34254;-61
2022/09/14 03:29:13;;;;;;;;;;;;;;;19.99;51.14;98908.50;4466827;32;34070;-62
2022/09/14 03:31:41;;;;;;;;;;;;;;;20.12;50.43;98891.47;4468653;32;34504;-61
2022/09/14 03:34:08;;;;;;;;;;;;;;;20.10;50.60;98894.38;4479365;32;33763;-61
2022/09/14 03:36:35;;;;;;;;;;;;;;;20.21;50.43;98896.56;4471384;32;34822;-61
2022/09/14 03:39:03;;;;;;;;;;;;;;;20.20;50.85;98892.16;4474767;32;34181;-61
2022/09/14 03:41:30;;;;;;;;;;;;;;;20.21;50.79;98901.16;4481447;32;34286;-61
2022/09/14 03:43:57;;;;;;;;;;;;;;;20.35;49.74;98910.22;4479654;31;33541;-62
2022/09/14 03:46:25;;;;;;;;;;;;;;;20.33;50.01;98912.34;4478327;32;34300;-61
2022/09/14 03:48:53;;;;;;;;;;;;;;;20.35;50.34;98907.50;4475065;32;35409;-61
2022/09/14 03:51:20;;;;;;;;;;;;;;;20.27;50.74;98905.81;4481187;32;34034;-62
2022/09/14 03:53:47;;;;;;;;;;;;;;;20.20;50.87;98908.47;4473361;31;33256;-62
2022/09/14 03:56:16;;;;;;;;;;;;;;;20.28;50.57;98904.75;4473318;32;34903;-61
2022/09/14 03:58:44;;;;;;;;;;;;;;;20.38;49.97;98909.84;4468368;31;32967;-62
2022/09/14 04:01:13;;;;;;;;;;;;;;;20.33;49.95;98917.75;4479738;32;33237;-62
2022/09/14 04:03:41;;;;;;;;;;;;;;;20.35;49.46;98907.50;4478972;31;34455;-62
2022/09/14 04:06:08;;;;;;;;;;;;;;;20.29;49.71;98903.75;4479190;32;34893;-62
2022/09/14 04:08:37;;;;;;;;;;;;;;;20.30;49.98;98904.56;4476473;32;34119;-62
2022/09/14 04:11:07;;;;;;;;;;;;;;;20.35;49.54;98905.66;4479675;31;35416;-62
2022/09/14 04:13:34;;;;;;;;;;;;;;;20.20;49.75;98905.75;4481449;32;33821;-61
2022/09/14 04:16:01;;;;;;;;;;;;;;;20.13;50.53;98901.31;4478678;31;34038;-65
2022/09/14 04:18:29;;;;;;;;;;;;;;;20.00;50.39;98893.91;4472280;32;34875;-64
2022/09/14 04:20:57;;;;;;;;;;;;;;;19.83;51.55;98889.75;4465798;32;34092;-62
2022/09/14 04:23:25;;;;;;;;;;;;;;;20.01;51.26;98879.25;4472662;32;33237;-62
2022/09/14 04:25:53;;;;;;;;;;;;;;;20.16;50.81;98880.03;4476022;31;33416;-62
2022/09/14 04:28:21;;;;;;;;;;;;;;;20.19;50.17;98884.19;4479892;32;34067;-64
2022/09/14 04:30:57;;;;;;;;;;;;;;;20.25;49.94;98884.25;4476081;32;34442;-61
2022/09/14 04:33:28;;;;;;;;;;;;;;;20.19;50.35;98873.31;4480823;32;33104;-61
2022/09/14 04:35:56;;;;;;;;;;;;;;;20.13;50.79;98879.59;4476866;32;33832;-61
2022/09/14 04:38:24;;;;;;;;;;;;;;;20.30;50.14;98874.69;4475477;32;35211;-62
2022/09/14 04:40:51;;;;;;;;;;;;;;;20.28;50.84;98874.03;4478620;32;34482;-63
2022/09/14 04:43:19;;;;;;;;;;;;;;;20.28;51.09;98876.75;4467298;32;34403;-62
2022/09/14 04:45:46;;;;;;;;;;;;;;;20.29;50.87;98862.97;4478995;32;35218;-64
2022/09/14 04:48:13;;;;;;;;;;;;;;;20.34;50.73;98859.66;4472125;31;34363;-62
2022/09/14 04:50:41;;;;;;;;;;;;;;;20.39;50.95;98859.91;4479113;32;34443;-62
2022/09/14 04:53:09;;;;;;;;;;;;;;;20.44;50.60;98854.69;4470952;32;34905;-62
2022/09/14 04:55:36;;;;;;;;;;;;;;;20.49;50.43;98852.22;4477793;32;33549;-62
2022/09/14 04:58:03;;;;;;;;;;;;;;;20.50;49.98;98856.63;4478535;32;34219;-62
2022/09/14 05:00:32;;;;;;;;;;;;;;;20.57;50.05;98848.53;4476326;32;32760;-62
2022/09/14 05:02:59;;;;;;;;;;;;;;;20.57;50.13;98852.06;4477150;32;33261;-61
2022/09/14 05:05:27;;;;;;;;;;;;;;;20.52;50.83;98859.19;4467980;32;32554;-62
2022/09/14 05:07:54;;;;;;;;;;;;;;;20.48;50.71;98855.97;4478941;32;34171;-65
2022/09/14 05:10:21;;;;;;;;;;;;;;;20.52;50.67;98857.28;4480960;31;34397;-64
2022/09/14 05:12:49;;;;;;;;;;;;;;;20.72;50.47;98862.00;4475319;32;33399;-65
2022/09/14 05:15:16;;;;;;;;;;;;;;;20.72;50.57;98862.84;4467275;32;35213;-62
2022/09/14 05:17:43;;;;;;;;;;;;;;;20.80;50.30;98872.69;4478931;32;33665;-63
2022/09/14 05:20:11;;;;;;;;;;;;;;;20.87;49.73;98874.41;4480647;31;34099;-62
2022/09/14 05:22:38;;;;;;;;;;;;;;;20.86;49.98;98872.72;4476827;32;34457;-62
2022/09/14 05:25:05;;;;;;;;;;;;;;;20.79;50.27;98876.47;4470030;32;35094;-62
2022/09/14 05:27:33;;;;;;;;;;;;;;;20.92;50.04;98865.63;4476986;32;33044;-62
2022/09/14 05:30:00;;;;;;;;;;;;;;;20.92;50.14;98855.59;4470257;32;35238;-63
2022/09/14 05:32:27;;;;;;;;;;;;;;;20.96;49.48;98839.72;4469338;32;33446;-61
2022/09/14 05:34:55;;;;;;;;;;;;;;;20.86;49.61;98833.81;4474417;32;34955;-61
2022/09/14 05:37:22;;;;;;;;;;;;;;;20.75;50.09;98837.13;4481036;31;35300;-62
2022/09/14 05:39:50;;;;;;;;;;;;;;;20.77;50.09;98848.63;4471734;32;34642;-62
2022/09/14 05:42:17;;;;;;;;;;;;;;;20.89;49.84;98866.03;4480945;31;33516;-62
2022/09/14 05:44:44;;;;;;;;;;;;;;;20.89;49.25;98852.44;4481347;32;33002;-61
2022/09/14 05:47:12;;;;;;;;;;;;;;;21.00;48.75;98853.75;4479967;31;34292;-62
2022/09/14 05:49:39;;;;;;;;;;;;;;;21.04;48.98;98853.13;4482542;32;35130;-64
2022/09/14 05:52:06;;;;;;;;;;;;;;;21.13;48.84;98859.25;4480161;32;32819;-62
2022/09/14 05:54:34;;;;;;;;;;;;;;;21.15;49.25;98865.31;4478360;32;33813;-62
2022/09/14 05:57:01;;;;;;;;;;;;;;;21.12;48.62;98868.44;4476684;32;34304;-61
2022/09/14 05:59:30;;;;;;;;;;;;;;;20.96;48.01;98863.34;4479597;31;34290;-62
2022/09/14 06:01:58;;;;;;;;;;;;;;;20.80;48.64;98862.69;4481483;32;32205;-61
2022/09/14 06:04:25;;;;;;;;;;;;;;;20.86;48.26;98861.00;4473736;32;33790;-62
2022/09/14 06:06:53;;;;;;;;;;;;;;;20.52;48.18;98859.19;4479591;32;33030;-61
2022/09/14 06:09:41;;;;;;;;;;;;;;;20.40;48.92;98856.13;4471411;32;35551;-61
2022/09/14 06:12:08;;;;;;;;;;;;;;;19.90;49.55;98849.91;4481369;32;33335;-62
2022/09/14 06:14:35;;;;;;;;;;;;;;;20.18;49.16;98842.63;4479230;32;35328;-60
2022/09/14 06:17:04;;;;;;;;;;;;;;;20.46;48.45;98845.31;4483877;32;32959;-61
2022/09/14 06:19:31;;;;;;;;;;;;;;;20.57;48.63;98845.81;4470877;32;34402;-61
2022/09/14 06:21:59;;;;;;;;;;;;;;;20.34;48.92;98846.91;4469234;32;33867;-61
2022/09/14 06:24:26;;;;;;;;;;;;;;;20.01;49.68;98852.94;4471297;32;35151;-61
2022/09/14 06:26:54;;;;;;;;;;;;;;;20.61;48.46;98855.22;4483359;32;34167;-61
2022/09/14 06:29:21;;;;;;;;;;;;;;;20.70;48.25;98848.59;4483855;32;33074;-61
2022/09/14 06:31:49;;;;;;;;;;;;;;;20.74;47.99;98846.31;4477657;32;33649;-62
2022/09/14 06:34:16;;;;;;;;;;;;;;;20.35;49.30;98864.03;4480271;32;34870;-61
2022/09/14 06:36:44;;;;;;;;;;;;;;;20.43;49.47;98861.19;4476335;32;34939;-61
2022/09/14 06:39:12;;;;;;;;;;;;;;;20.66;49.20;98875.34;4483892;32;34489;-61
2022/09/14 06:41:39;;;;;;;;;;;;;;;21.07;48.18;98895.44;4482924;32;33316;-61
2022/09/14 06:44:11;;;;;;;;;;;;;;;21.13;48.09;98889.19;4472869;32;34016;-62
2022/09/14 06:46:39;;;;;;;;;;;;;;;21.33;47.43;98895.53;4480488;32;33824;-61
2022/09/14 06:49:12;;;;;;;;;;;;;;;21.18;47.82;98892.94;4477543;32;34113;-61
2022/09/14 06:51:41;;;;;;;;;;;;;;;21.34;47.29;98896.34;4483799;32;33424;-61
2022/09/14 06:54:09;;;;;;;;;;;;;;;21.37;47.20;98893.25;4479647;32;34978;-61
2022/09/14 06:56:37;;;;;;;;;;;;;;;21.28;47.35;98881.66;4472650;32;34119;-60
2022/09/14 06:59:06;;;;;;;;;;;;;;;21.27;48.36;98869.12;4470874;32;32994;-61
2022/09/14 07:01:33;;;;;;;;;;;;;;;21.32;49.64;98865.81;4475435;32;33504;-61
2022/09/14 07:04:00;;;;;;;;;;;;;;;21.36;50.78;98859.75;4477385;32;32857;-60
2022/09/14 07:06:29;;;;;;;;;;;;;;;21.27;50.46;98852.78;4476724;32;33359;-61
2022/09/14 07:08:57;;;;;;;;;;;;;;;21.11;51.27;98850.44;4480257;32;33266;-61
2022/09/14 07:11:25;;;;;;;;;;;;;;;21.10;51.40;98848.78;4475004;32;32381;-61
2022/09/14 07:13:59;;;;;;;;;;;;;;;21.10;51.71;98849.59;4475599;32;32739;-61
2022/09/14 07:16:27;;;;;;;;;;;;;;;21.14;52.50;98869.06;4478428;32;35725;-61
2022/09/14 07:18:55;;;;;;;;;;;;;;;21.26;52.91;98878.34;4477604;32;33107;-61
2022/09/14 07:21:22;;;;;;;;;;;;;;;21.35;53.07;98868.97;4479452;32;34442;-61
2022/09/14 07:23:50;;;;;;;;;;;;;;;21.34;52.58;98869.12;4478879;32;34078;-61
2022/09/14 07:26:24;;;;;;;;;;;;;;;21.43;53.40;98875.28;4484760;32;34266;-61
2022/09/14 07:28:53;;;;;;;;;;;;;;;21.46;53.26;98866.69;4482694;32;35553;-61
2022/09/14 07:33:41;;;;;;;;;;;;;;;22.12;51.63;98864.03;4492746;31;849839;-63
2022/09/14 07:36:09;;;;;;;;;;;;;;;22.12;51.63;98864.03;4509570;31;33193;-63
2022/09/14 07:38:36;;;;;;;;;;;;;;;21.59;52.67;98873.00;4489232;32;34192;-63
2022/09/14 07:41:20;;;;;;;;;;;;;;;21.65;52.92;98876.78;4496858;31;33061;-63
2022/09/14 07:43:48;;;;;;;;;;;;;;;21.65;52.35;98865.87;4505511;31;32573;-63
2022/09/14 07:46:16;;;;;;;;;;;;;;;21.60;52.39;98861.06;4505449;31;31917;-63
2022/09/14 07:48:43;;;;;;;;;;;;;;;21.63;52.35;98857.91;4496073;31;33759;-63
2022/09/14 07:51:10;;;;;;;;;;;;;;;21.65;51.76;98851.44;4496347;31;34686;-63
2022/09/14 07:53:39;;;;;;;;;;;;;;;21.73;51.21;98856.66;4505041;31;33728;-63
2022/09/14 07:56:06;;;;;;;;;;;;;;;21.68;50.97;98851.03;4495855;31;31779;-63
2022/09/14 07:58:34;;;;;;;;;;;;;;;21.47;51.44;98860.19;4498546;31;34730;-63
2022/09/14 08:01:02;;;;;;;;;;;;;;;21.42;52.19;98854.56;4497611;31;34894;-64
2022/09/14 08:03:30;;;;;;;;;;;;;;;21.37;52.26;98842.37;4507048;31;33954;-63
2022/09/14 08:05:59;;;;;;;;;;;;;;;21.30;52.88;98827.87;4507707;31;32300;-63
2022/09/14 08:08:29;;;;;;;;;;;;;;;20.91;53.63;98821.28;4495656;31;33956;-63
2022/09/14 08:11:07;;;;;;;;;;;;;;;20.99;53.44;98828.41;4498854;31;34313;-63
2022/09/14 08:13:34;;;;;;;;;;;;;;;21.13;53.45;98830.16;4504953;31;33247;-63
2022/09/14 08:16:01;;;;;;;;;;;;;;;21.28;53.45;98827.25;4497717;31;34349;-63
2022/09/14 08:18:29;;;;;;;;;;;;;;;21.28;53.23;98829.13;4497999;31;32498;-63
2022/09/14 08:20:56;;;;;;;;;;;;;;;21.23;53.12;98832.47;4497452;31;35337;-63
2022/09/14 08:23:24;;;;;;;;;;;;;;;21.21;53.26;98837.28;4496262;31;34038;-62
2022/09/14 08:25:52;;;;;;;;;;;;;;;21.18;53.21;98827.63;4506988;31;34157;-62
2022/09/14 08:28:19;;;;;;;;;;;;;;;20.88;54.54;98827.13;4497443;31;34159;-63
2022/09/14 08:30:46;;;;;;;;;;;;;;;21.00;54.31;98832.84;4504268;31;35342;-62
2022/09/14 08:33:13;;;;;;;;;;;;;;;21.15;53.99;98806.31;4495983;31;33975;-63
2022/09/14 08:35:41;;;;;;;;;;;;;;;21.32;54.43;98800.47;4495766;31;31784;-62
2022/09/14 08:38:24;;;;;;;;;;;;;;;21.17;54.94;98800.66;4511950;31;33684;-63
2022/09/14 08:40:51;;;;;;;;;;;;;;;21.13;55.56;98813.84;4493417;31;32535;-63
2022/09/14 08:43:18;;;;;;;;;;;;;;;20.98;55.13;98815.88;4491626;31;34073;-62
2022/09/14 08:45:45;;;;;;;;;;;;;;;20.84;56.21;98830.47;4485185;31;33382;-62
2022/09/14 08:48:21;;;;;;;;;;;;;;;21.04;55.99;98817.78;4478407;32;33813;-62
2022/09/14 08:50:52;;;;;;;;;;;;;;;21.46;55.37;98823.12;4482485;31;35354;-62
2022/09/14 08:53:20;;;;;;;;;;;;;;;21.33;55.45;98826.66;4493577;31;34941;-62
2022/09/14 08:55:48;;;;;;;;;;;;;;;20.98;56.22;98810.44;4481061;31;31042;-63
2022/09/14 08:58:15;;;;;;;;;;;;;;;21.09;56.47;98812.56;4481765;31;32836;-62
2022/09/14 09:00:44;;;;;;;;;;;;;;;21.20;56.27;98811.13;4486023;31;34295;-63
2022/09/14 09:03:21;;;;;;;;;;;;;;;21.68;55.28;98819.19;4472128;31;34267;-63
2022/09/14 09:05:51;;;;;;;;;;;;;;;21.29;56.10;98806.34;4483961;32;33243;-62
2022/09/14 09:08:22;;;;;;;;;;;;;;;21.81;54.77;98810.16;4487247;31;33179;-63
2022/09/14 09:10:51;;;;;;;;;;;;;;;21.89;53.91;98804.50;4473948;32;34286;-62
2022/09/14 09:13:19;;;;;;;;;;;;;;;21.96;54.26;98799.91;4489505;31;34890;-62
2022/09/14 09:15:54;;;;;;;;;;;;;;;22.01;54.77;98807.44;4482355;31;34761;-63
2022/09/14 09:18:23;;;;;;;;;;;;;;;22.27;53.84;98817.47;4484995;31;34288;-63
2022/09/14 09:20:51;;;;;;;;;;;;;;;22.45;53.44;98830.47;4491859;31;32798;-63
2022/09/14 09:23:18;;;;;;;;;;;;;;;22.58;53.30;98832.31;4491163;31;33936;-62
2022/09/14 09:26:02;;;;;;;;;;;;;;;22.59;53.44;98839.44;4486178;31;34352;-62
2022/09/14 09:28:29;;;;;;;;;;;;;;;22.60;53.03;98838.38;4480793;31;35253;-62
2022/09/14 09:30:58;;;;;;;;;;;;;;;22.38;53.02;98841.38;4484435;31;33962;-62
2022/09/14 09:33:27;;;;;;;;;;;;;;;22.60;52.28;98852.88;4482073;32;33452;-62
2022/09/14 09:35:55;;;;;;;;;;;;;;;22.93;51.57;98839.12;4485646;31;33197;-62
2022/09/14 09:38:24;;;;;;;;;;;;;;;22.90;51.89;98846.88;4484833;31;34209;-62
2022/09/14 09:41:04;;;;;;;;;;;;;;;23.01;52.04;98844.31;4484813;31;34258;-62
2022/09/14 09:43:31;;;;;;;;;;;;;;;23.23;51.24;98846.75;4483813;31;32664;-62
2022/09/14 09:46:15;;;;;;;;;;;;;;;23.36;51.53;98849.41;4493076;31;33070;-62
2022/09/14 09:48:44;;;;;;;;;;;;;;;23.45;51.34;98841.78;4474504;31;34070;-63
2022/09/14 09:51:15;;;;;;;;;;;;;;;23.56;50.85;98834.78;4476682;31;34021;-62
2022/09/14 09:53:50;;;;;;;;;;;;;;;23.26;51.03;98838.12;4476103;31;33956;-63
2022/09/14 09:56:19;;;;;;;;;;;;;;;23.46;51.54;98838.00;4492951;31;34311;-62
2022/09/14 09:58:50;;;;;;;;;;;;;;;23.75;50.74;98844.75;4485151;31;34929;-63
2022/09/14 10:01:19;;;;;;;;;;;;;;;23.87;50.68;98839.41;4492035;31;33097;-63
2022/09/14 10:04:14;;;;;;;;;;;;;;;24.00;49.90;98842.03;4471254;31;32694;-62
2022/09/14 10:06:42;;;;;;;;;;;;;;;24.08;49.97;98844.50;4480126;31;32053;-62
2022/09/14 10:09:28;;;;;;;;;;;;;;;23.94;49.51;98862.88;4484746;32;32824;-62
2022/09/14 10:11:56;;;;;;;;;;;;;;;23.88;49.63;98865.69;4486200;31;32857;-62
2022/09/14 10:14:30;;;;;;;;;;;;;;;24.13;49.88;98861.06;4484957;31;34863;-62
2022/09/14 10:17:04;;;;;;;;;;;;;;;24.25;50.13;98863.06;4490071;31;33306;-62
2022/09/14 10:19:32;;;;;;;;;;;;;;;24.31;50.21;98862.16;4483985;32;33649;-62
2022/09/14 10:22:00;;;;;;;;;;;;;;;24.46;50.31;98859.09;4484808;31;35071;-62
2022/09/14 10:24:28;;;;;;;;;;;;;;;24.14;49.57;98853.69;4485567;31;34195;-62
2022/09/14 10:26:55;;;;;;;;;;;;;;;23.91;49.94;98843.37;4483031;31;32031;-62
2022/09/14 10:29:28;;;;;;;;;;;;;;;22.89;52.87;98835.13;4496921;31;34333;-62
2022/09/14 10:31:56;;;;;;;;;;;;;;;23.28;52.85;98833.28;4477448;31;35388;-62
2022/09/14 10:34:23;;;;;;;;;;;;;;;23.42;52.07;98825.84;4474303;31;34831;-62
2022/09/14 10:36:53;;;;;;;;;;;;;;;23.69;51.23;98826.53;4494381;31;33293;-62
2022/09/14 10:39:22;;;;;;;;;;;;;;;23.26;52.49;98835.41;4494609;31;33704;-62
2022/09/14 10:42:00;;;;;;;;;;;;;;;23.67;51.25;98829.47;4485943;31;33922;-62
2022/09/14 10:44:47;;;;;;;;;;;;;;;23.56;51.92;98834.78;4477185;31;33791;-63
2022/09/14 10:47:20;;;;;;;;;;;;;;;23.36;52.67;98832.19;4485954;31;33372;-62
2022/09/14 10:50:23;;;;;;;;;;;;;;;23.57;52.26;98825.56;4483680;31;34043;-63
2022/09/14 10:53:09;;;;;;;;;;;;;;;23.59;52.93;98832.44;4413579;32;33598;-62
2022/09/14 10:55:43;;;;;;;;;;;;;;;23.56;52.62;98837.50;4472021;32;33816;-63
2022/09/14 10:58:14;;;;;;;;;;;;;;;23.60;52.79;98838.78;4484607;31;33425;-62
2022/09/14 11:01:09;;;;;;;;;;;;;;;23.63;52.67;98841.87;4486379;31;34984;-63
2022/09/14 11:03:39;;;;;;;;;;;;;;;23.78;51.99;98840.75;4450950;31;35396;-63
2022/09/14 11:06:18;;;;;;;;;;;;;;;23.94;51.49;98841.03;4488077;31;33868;-63
2022/09/14 11:08:47;;;;;;;;;;;;;;;23.70;52.38;98834.50;4473841;31;33153;-63
2022/09/14 11:11:14;;;;;;;;;;;;;;;23.54;52.52;98843.22;4474047;31;34042;-63
2022/09/14 11:13:45;;;;;;;;;;;;;;;23.87;51.98;98837.53;4481382;31;34566;-64
2022/09/14 11:16:12;;;;;;;;;;;;;;;23.91;52.35;98830.53;4489290;31;33083;-63
2022/09/14 11:18:50;;;;;;;;;;;;;;;23.80;52.41;98817.63;4463059;32;31642;-63
2022/09/14 11:21:35;;;;;;;;;;;;;;;23.96;52.54;98815.41;4483744;31;34712;-63
2022/09/14 11:24:21;;;;;;;;;;;;;;;23.97;52.63;98823.34;4470480;31;35143;-64
2022/09/14 11:26:53;;;;;;;;;;;;;;;24.08;52.13;98819.91;4469041;32;33684;-63
2022/09/14 11:29:21;;;;;;;;;;;;;;;24.07;51.99;98825.56;4483404;31;32457;-63
2022/09/14 11:31:50;;;;;;;;;;;;;;;24.11;51.83;98822.19;4484016;31;33842;-63
2022/09/14 11:34:40;;;;;;;;;;;;;;;23.93;53.16;98827.59;4482805;31;34319;-63
2022/09/14 11:37:08;;;;;;;;;;;;;;;24.19;52.29;98829.25;4476258;31;33467;-63
2022/09/14 11:39:37;;;;;;;;;;;;;;;24.32;52.00;98820.09;4470600;31;34145;-64
2022/09/14 11:42:16;;;;;;;;;;;;;;;24.34;51.47;98809.78;4480623;31;32724;-64
2022/09/14 11:44:45;;;;;;;;;;;;;;;24.39;51.75;98798.97;4469251;31;32662;-65
2022/09/14 11:47:17;;;;;;;;;;;;;;;24.33;52.09;98792.53;4471106;31;33824;-67
2022/09/14 11:50:02;;;;;;;;;;;;;;;24.22;52.00;98795.16;4476342;31;33931;-63
2022/09/14 11:52:30;;;;;;;;;;;;;;;24.28;52.38;98799.72;4477128;31;34118;-64
2022/09/14 11:54:58;;;;;;;;;;;;;;;24.43;52.14;98802.97;4492949;31;33991;-63
2022/09/14 11:57:26;;;;;;;;;;;;;;;24.24;52.90;98803.97;4488458;31;32232;-64
2022/09/14 11:59:55;;;;;;;;;;;;;;;24.67;51.95;98805.84;4472318;32;32924;-63
2022/09/14 12:02:22;;;;;;;;;;;;;;;24.66;51.80;98802.28;4487420;31;34267;-64
2022/09/14 12:05:05;;;;;;;;;;;;;;;24.86;50.78;98793.81;4492169;31;34277;-64
2022/09/14 12:07:41;;;;;;;;;;;;;;;24.74;52.19;98793.75;4467147;31;33948;-63
2022/09/14 12:10:15;;;;;;;;;;;;;;;24.45;51.79;98791.78;4485561;31;33785;-64
2022/09/14 12:13:16;;;;;;;;;;;;;;;24.66;51.64;98795.97;4484524;31;33571;-63
2022/09/14 12:15:43;;;;;;;;;;;;;;;24.98;51.17;98788.41;4467185;31;34516;-64
2022/09/14 12:18:12;;;;;;;;;;;;;;;24.87;51.53;98784.53;4480804;31;34087;-64
2022/09/14 12:20:41;;;;;;;;;;;;;;;24.89;50.71;98776.94;4483686;31;32908;-61
2022/09/14 12:23:19;;;;;;;;;;;;;;;25.07;50.48;98776.91;4478961;31;34184;-61
2022/09/14 12:25:55;;;;;;;;;;;;;;;25.45;50.26;98774.91;4485691;31;34136;-61
2022/09/14 12:28:35;;;;;;;;;;;;;;;25.28;50.29;98766.53;4489461;31;34142;-61
2022/09/14 12:31:02;;;;;;;;;;;;;;;25.49;49.73;98770.59;4474206;31;32414;-61
2022/09/14 12:33:30;;;;;;;;;;;;;;;25.74;49.30;98773.16;4490105;31;34344;-61
2022/09/14 12:36:09;;;;;;;;;;;;;;;25.41;50.72;98765.50;4482202;31;34364;-62
2022/09/14 12:38:37;;;;;;;;;;;;;;;25.44;49.13;98757.63;4474981;31;32358;-62
2022/09/14 12:41:13;;;;;;;;;;;;;;;25.72;48.81;98751.47;4467783;31;31572;-62
2022/09/14 12:43:41;;;;;;;;;;;;;;;25.94;48.79;98738.06;4482531;31;33293;-62
2022/09/14 12:46:09;;;;;;;;;;;;;;;26.06;48.56;98738.03;4472216;31;32615;-62
2022/09/14 12:48:54;;;;;;;;;;;;;;;26.03;48.11;98741.25;4470260;32;34865;-62
2022/09/14 12:51:28;;;;;;;;;;;;;;;26.29;47.54;98726.19;4469265;31;31760;-61
2022/09/14 12:54:07;;;;;;;;;;;;;;;26.31;47.57;98715.00;4486420;31;34229;-62
2022/09/14 12:56:54;;;;;;;;;;;;;;;26.06;48.36;98718.84;4479552;31;32681;-62
2022/09/14 12:59:40;;;;;;;;;;;;;;;26.29;47.15;98717.12;4486848;31;33882;-62
2022/09/14 13:02:26;;;;;;;;;;;;;;;26.08;47.66;98704.91;4487664;31;32235;-62
2022/09/14 13:04:54;;;;;;;;;;;;;;;25.87;49.24;98709.09;4485502;31;34164;-62
2022/09/14 13:07:24;;;;;;;;;;;;;;;26.05;49.00;98703.47;4483754;31;34811;-62